Etusivu
METAR-TAF:

METAR-TAF

Lentoasemat :

Šiauliai, Liettua

Leveyspiiri: 55-53-38N, Pituuspiiri: 023-23-42E, korkeus merenpinnasta: 135 m

Tämänhetkinen sää

Tämä raportti tehtiin 21 minuuttia sitten, kello 06.20 UTC
Tuuli 21 kn luoteesta
Lämpötila 13°C
Kosteus 77%
Ilmanpaine 1008 hPa
Näkyvyys 10 km tai enemmän
Muutamia pilviä 2600 ft:n korkeudessa
Hajanaisia pilviä 3500 ft:n korkeudessa
Hajonneita pilviä 10000 ft:n korkeudessa

METAR: EYSA 240620Z 31021KT 9999 FEW026 SCT035 BKN100 13/09 Q1008 BLU NOSIG

Aika: 09:41 (06:41 UTC)

Sääennuste

Tämä raportti tehtiin 1 tunti ja 40 minuuttia sitten, kello 05.01 UTC
Ennuste voimassa 24. päivästä klo 06 UTC - 24. päivään klo 15 UTC
Tuuli 24 kn pohjoisen/luoteesta puuskistuen 34 kn:hen
Näkyvyys: 9000 m
Hajonneita pilviä 2500 ft:n korkeudessa

TAF: EYSA 240501Z 2406/2415 33024G34KT 9000 BKN025

Säähavainnot ja -ennusteet yli 4000 lentoasemalta (METAR- ja TAF-raportit).

Käytössä olevat sääasemat on merkitty karttaan keltaisilla ja punaisilla pisteillä.

Aseta hiiri pisteen päälle nähdäksesi sääaseman nimen.

Klikkaa sitten nähdäksesi säähavainnot ja -ennusteet.

Kartan vaihtaminen: klikkaa mustalla rastilla varustettuja vihreitä pisteitä, niin voit zoomata sisään; viivalla varustettua vihreää pistettä, niin voit zoomata ulos tai vihreitä nuolia, niin pääset viereisille kartoille.


METAR-TAF: